Time;durP1;ratioP1;P1;durP2;ratioP2;P2;SDS_P1;SDS_P2;PMS_P1;PMS_P2;Temp;Humidity;BMP_temperature;BMP_pressure;BME280_temperature;BME280_humidity;BME280_pressure;Samples;Min_cycle;Max_cycle;Signal;HPM_P1;HPM_P2
2022/03/31 00:00:20;;;;;;;0.80;0.70;;;9.30;52.20;;;;;;5051827;28;20256;-89
2022/03/31 00:02:47;;;;;;;0.52;0.45;;;9.30;51.60;;;;;;5046365;28;20033;-89
2022/03/31 00:05:13;;;;;;;1.02;0.63;;;9.30;51.70;;;;;;5044066;28;20025;-89
2022/03/31 00:07:48;;;;;;;1.70;0.60;;;9.30;51.70;;;;;;5034971;28;20545;-91
2022/03/31 00:10:18;;;;;;;1.25;0.80;;;9.20;51.50;;;;;;5048202;28;20033;-88
2022/03/31 00:12:44;;;;;;;0.52;0.50;;;9.20;51.40;;;;;;5029551;28;20037;-90
2022/03/31 00:15:10;;;;;;;2.22;0.77;;;9.20;51.40;;;;;;5033811;28;20368;-88
2022/03/31 00:17:37;;;;;;;1.65;0.68;;;9.10;51.20;;;;;;5025777;28;20491;-88
2022/03/31 00:20:03;;;;;;;1.13;0.88;;;9.10;51.20;;;;;;5014527;28;20154;-88
2022/03/31 00:22:29;;;;;;;1.13;0.80;;;9.10;51.20;;;;;;5034308;28;20559;-88
2022/03/31 00:24:55;;;;;;;1.77;1.20;;;9.10;51.20;;;;;;5047895;28;20029;-88
2022/03/31 00:27:21;;;;;;;2.33;1.05;;;9.00;51.10;;;;;;5053349;28;20025;-88
2022/03/31 00:29:47;;;;;;;1.23;0.80;;;9.00;51.10;;;;;;5014829;28;20098;-92
2022/03/31 00:32:13;;;;;;;3.63;1.10;;;9.00;51.10;;;;;;5032859;28;20044;-92
2022/03/31 00:34:39;;;;;;;1.90;1.00;;;9.00;51.70;;;;;;5032398;28;20524;-93
2022/03/31 00:39:54;;;;;;;1.50;1.08;;;8.90;51.00;;;;;;4989319;28;20060;-75
2022/03/31 00:42:20;;;;;;;3.58;1.23;;;8.90;51.00;;;;;;4999819;28;20380;-77
2022/03/31 00:44:45;;;;;;;2.28;1.10;;;8.80;50.80;;;;;;5004255;28;20050;-77
2022/03/31 00:47:12;;;;;;;1.05;0.77;;;8.80;50.90;;;;;;5006985;28;20034;-76
2022/03/31 00:49:38;;;;;;;1.65;1.00;;;8.80;50.90;;;;;;5006296;28;20027;-76
2022/03/31 00:52:05;;;;;;;2.78;1.75;;;8.80;50.90;;;;;;4998926;28;20496;-76
2022/03/31 00:54:32;;;;;;;2.15;1.00;;;8.80;50.90;;;;;;5027833;28;20498;-76
2022/03/31 00:57:00;;;;;;;1.60;1.05;;;8.70;50.70;;;;;;5025601;28;20053;-76
2022/03/31 00:59:26;;;;;;;0.80;0.80;;;8.70;50.80;;;;;;5026276;28;20033;-76
2022/03/31 01:01:54;;;;;;;3.08;1.58;;;8.70;50.90;;;;;;5023186;28;20102;-76
2022/03/31 01:04:19;;;;;;;3.08;1.27;;;8.70;50.90;;;;;;5026154;28;20283;-76
2022/03/31 01:06:45;;;;;;;2.75;1.10;;;8.60;50.70;;;;;;5023180;28;20117;-76
2022/03/31 01:09:13;;;;;;;1.77;1.55;;;8.60;51.30;;;;;;5022295;28;20030;-76
2022/03/31 01:11:39;;;;;;;1.73;1.30;;;8.60;50.70;;;;;;5026686;28;20041;-76
2022/03/31 01:14:09;;;;;;;2.60;1.70;;;8.60;50.70;;;;;;5025240;28;20033;-76
2022/03/31 01:16:36;;;;;;;2.70;1.83;;;8.50;50.50;;;;;;5030559;28;20056;-76
2022/03/31 01:19:06;;;;;;;3.40;2.42;;;8.50;50.50;;;;;;5027459;28;20029;-76
2022/03/31 01:21:37;;;;;;;4.00;2.40;;;8.50;50.60;;;;;;5025563;28;20075;-76
2022/03/31 01:24:08;;;;;;;3.40;3.10;;;8.50;50.70;;;;;;5023420;28;20021;-76
2022/03/31 01:26:38;;;;;;;4.25;3.22;;;8.50;50.60;;;;;;5027001;28;20494;-76
2022/03/31 01:29:05;;;;;;;3.63;3.00;;;8.50;50.60;;;;;;5026769;28;20124;-76
2022/03/31 01:31:30;;;;;;;4.75;3.90;;;8.40;50.50;;;;;;5025597;28;20034;-76
2022/03/31 01:33:57;;;;;;;5.20;4.78;;;8.40;50.50;;;;;;5026234;28;20036;-76
2022/03/31 01:36:24;;;;;;;5.80;5.15;;;8.40;50.50;;;;;;5025452;28;20091;-75
2022/03/31 01:38:51;;;;;;;5.97;5.38;;;8.40;50.60;;;;;;5025077;28;20111;-76
2022/03/31 01:41:16;;;;;;;5.63;5.05;;;8.30;50.40;;;;;;5023345;28;20087;-76
2022/03/31 01:43:42;;;;;;;6.60;4.85;;;8.30;50.40;;;;;;5017616;28;20041;-77
2022/03/31 01:46:08;;;;;;;6.47;5.75;;;8.30;50.40;;;;;;5004192;28;20029;-76
2022/03/31 01:48:35;;;;;;;6.10;5.50;;;8.30;50.50;;;;;;5020098;28;20025;-76
2022/03/31 01:51:04;;;;;;;6.63;5.93;;;8.30;50.50;;;;;;5021516;28;20052;-76
2022/03/31 01:53:32;;;;;;;7.30;6.40;;;8.20;50.30;;;;;;5025953;28;20491;-75
2022/03/31 01:55:58;;;;;;;6.47;5.88;;;8.20;50.30;;;;;;5024890;28;20904;-76
2022/03/31 01:58:24;;;;;;;7.95;6.50;;;8.20;50.30;;;;;;5026523;28;20112;-76
2022/03/31 02:00:50;;;;;;;6.28;5.68;;;8.20;50.30;;;;;;5007445;28;20051;-76
2022/03/31 02:03:17;;;;;;;8.25;6.13;;;8.20;50.40;;;;;;5017468;28;20160;-75
2022/03/31 02:05:43;;;;;;;5.97;5.40;;;8.10;50.20;;;;;;5027874;28;20025;-75
2022/03/31 02:08:09;;;;;;;7.60;5.53;;;8.10;50.20;;;;;;5009407;28;20061;-74
2022/03/31 02:10:35;;;;;;;6.35;5.75;;;8.10;50.20;;;;;;5028013;28;20103;-75
2022/03/31 02:13:01;;;;;;;8.18;6.30;;;8.10;50.20;;;;;;5027544;28;20115;-75
2022/03/31 02:15:29;;;;;;;6.22;5.43;;;8.10;50.10;;;;;;5028880;28;20022;-76
2022/03/31 02:17:55;;;;;;;7.95;6.43;;;8.10;50.10;;;;;;5025767;28;20122;-76
2022/03/31 02:20:23;;;;;;;6.07;5.47;;;8.10;50.20;;;;;;5006702;28;20030;-76
2022/03/31 02:22:49;;;;;;;6.10;5.60;;;8.10;50.10;;;;;;5018810;28;20067;-77
2022/03/31 02:25:15;;;;;;;6.82;6.10;;;8.10;50.10;;;;;;5028740;28;20033;-76
2022/03/31 02:27:40;;;;;;;5.65;5.15;;;8.00;50.00;;;;;;5029044;28;20436;-76
2022/03/31 02:30:08;;;;;;;5.53;4.93;;;8.10;50.10;;;;;;5028491;28;20037;-76
2022/03/31 02:32:35;;;;;;;5.53;5.03;;;8.00;50.00;;;;;;5021145;28;20042;-76
2022/03/31 02:35:02;;;;;;;5.22;4.72;;;8.00;50.00;;;;;;5022741;28;20037;-76
2022/03/31 02:37:27;;;;;;;5.50;4.82;;;8.00;50.00;;;;;;5017092;28;20034;-76
2022/03/31 02:39:53;;;;;;;5.28;4.78;;;7.90;49.90;;;;;;5005695;28;20522;-76
2022/03/31 02:42:19;;;;;;;5.32;4.53;;;7.90;49.90;;;;;;5025136;28;20037;-77
2022/03/31 02:44:45;;;;;;;5.65;4.20;;;7.90;49.90;;;;;;5025839;28;20315;-76
2022/03/31 02:47:11;;;;;;;6.22;4.47;;;7.90;49.90;;;;;;5027057;28;20120;-76
2022/03/31 02:49:38;;;;;;;4.47;4.07;;;7.90;50.00;;;;;;5027003;28;20120;-77
2022/03/31 02:52:04;;;;;;;5.50;4.15;;;7.90;50.00;;;;;;5027685;28;20041;-76
2022/03/31 02:57:15;;;;;;;4.78;4.25;;;7.90;50.00;;;;;;5030884;28;20056;-77
2022/03/31 02:59:40;;;;;;;4.40;3.72;;;7.80;49.80;;;;;;5034032;28;20056;-76
2022/03/31 03:02:07;;;;;;;7.57;4.32;;;7.80;49.80;;;;;;5030599;28;20022;-76
2022/03/31 03:04:33;;;;;;;5.43;3.60;;;7.80;49.80;;;;;;5002568;28;20412;-76
2022/03/31 03:06:58;;;;;;;8.65;3.83;;;7.80;49.80;;;;;;5033867;28;20033;-77
2022/03/31 03:09:25;;;;;;;4.90;3.83;;;7.80;49.80;;;;;;5032534;28;20117;-77
2022/03/31 03:11:51;;;;;;;5.13;3.33;;;7.80;49.70;;;;;;5033588;28;20128;-76
2022/03/31 03:14:17;;;;;;;4.20;3.47;;;7.80;49.70;;;;;;5015973;28;20559;-75
2022/03/31 03:16:44;;;;;;;4.47;4.00;;;7.80;49.70;;;;;;5011492;28;20507;-76
2022/03/31 03:19:10;;;;;;;3.92;3.25;;;7.80;49.70;;;;;;5037414;28;20025;-77
2022/03/31 03:21:36;;;;;;;5.90;3.80;;;7.80;49.70;;;;;;5033594;28;20048;-77
2022/03/31 03:24:03;;;;;;;3.97;3.30;;;7.80;49.70;;;;;;5018054;28;20034;-77
2022/03/31 03:26:30;;;;;;;5.40;3.53;;;7.80;49.70;;;;;;5006595;28;20033;-76
2022/03/31 03:28:56;;;;;;;6.63;3.58;;;7.80;49.70;;;;;;5027060;28;20033;-77
2022/03/31 03:31:22;;;;;;;3.45;2.42;;;7.80;49.70;;;;;;5021306;28;20121;-76
2022/03/31 03:33:48;;;;;;;5.53;3.28;;;7.80;49.70;;;;;;5030227;28;20160;-76
2022/03/31 03:36:16;;;;;;;5.03;3.58;;;7.70;49.50;;;;;;5023030;28;20057;-76
2022/03/31 03:38:43;;;;;;;6.65;3.28;;;7.70;49.50;;;;;;5024703;28;20046;-76
2022/03/31 03:41:11;;;;;;;5.47;2.97;;;7.70;49.50;;;;;;5012821;28;20107;-76
2022/03/31 03:43:37;;;;;;;6.68;3.53;;;7.70;49.60;;;;;;5033476;28;20025;-76
2022/03/31 03:46:03;;;;;;;5.00;3.10;;;7.70;49.60;;;;;;5031462;28;20244;-76
2022/03/31 03:48:30;;;;;;;6.55;3.45;;;7.70;49.60;;;;;;5014051;28;20037;-76
2022/03/31 03:50:56;;;;;;;5.55;3.03;;;7.60;49.40;;;;;;5019919;28;20064;-75
2022/03/31 03:53:22;;;;;;;4.53;3.53;;;7.60;49.40;;;;;;5034226;28;20429;-76
2022/03/31 03:55:48;;;;;;;4.10;2.80;;;7.60;49.40;;;;;;5033297;28;20044;-75
2022/03/31 03:58:15;;;;;;;3.55;2.90;;;7.60;49.40;;;;;;5027160;28;20380;-75
2022/03/31 04:00:41;;;;;;;5.57;3.00;;;7.60;49.40;;;;;;5026283;28;20176;-75
2022/03/31 04:03:07;;;;;;;5.28;2.83;;;7.60;49.40;;;;;;5032981;28;20112;-76
2022/03/31 04:05:33;;;;;;;5.97;3.00;;;7.60;49.40;;;;;;5013328;28;20121;-75
2022/03/31 04:07:59;;;;;;;3.88;2.80;;;7.60;49.30;;;;;;5026252;28;20029;-75
2022/03/31 04:10:25;;;;;;;5.53;2.80;;;7.60;49.40;;;;;;5029424;28;20128;-76
2022/03/31 04:12:51;;;;;;;5.88;2.90;;;7.50;49.20;;;;;;5029339;28;20045;-75
2022/03/31 04:15:17;;;;;;;4.28;3.20;;;7.50;49.20;;;;;;5030228;28;20120;-76
2022/03/31 04:17:43;;;;;;;5.57;3.25;;;7.50;49.20;;;;;;5028451;28;20488;-75
2022/03/31 04:20:11;;;;;;;3.58;2.92;;;7.50;49.10;;;;;;5007569;28;20036;-76
2022/03/31 04:22:37;;;;;;;3.22;2.92;;;7.50;49.20;;;;;;5025779;28;20025;-76
2022/03/31 04:25:05;;;;;;;3.10;2.63;;;7.40;49.00;;;;;;5028585;28;20095;-75
2022/03/31 04:27:32;;;;;;;2.90;2.53;;;7.40;49.00;;;;;;5029558;28;20136;-75
2022/03/31 04:29:58;;;;;;;3.33;2.88;;;7.40;49.00;;;;;;5027049;28;20037;-75
2022/03/31 04:32:24;;;;;;;3.25;2.50;;;7.40;49.00;;;;;;5017975;28;20129;-76
2022/03/31 04:34:50;;;;;;;4.00;3.03;;;7.40;49.00;;;;;;5029405;28;20072;-74
2022/03/31 04:37:16;;;;;;;3.63;2.72;;;7.40;49.00;;;;;;5029532;28;20061;-75
2022/03/31 04:39:42;;;;;;;3.92;2.58;;;7.30;48.80;;;;;;5028840;28;20095;-76
2022/03/31 04:42:09;;;;;;;4.20;2.90;;;7.30;48.80;;;;;;5030246;28;20040;-75
2022/03/31 04:44:37;;;;;;;3.25;2.85;;;7.30;48.80;;;;;;5029599;28;20116;-74
2022/03/31 04:47:05;;;;;;;3.78;2.72;;;7.30;49.40;;;;;;5027454;28;20036;-75
2022/03/31 04:49:31;;;;;;;3.50;2.70;;;7.30;48.80;;;;;;5007367;28;20029;-76
2022/03/31 04:51:57;;;;;;;6.32;3.10;;;7.30;48.80;;;;;;5025160;28;20076;-75
2022/03/31 04:54:23;;;;;;;3.30;2.85;;;7.30;49.40;;;;;;5003465;28;20034;-76
2022/03/31 04:56:49;;;;;;;4.20;2.80;;;7.30;48.80;;;;;;5025531;28;20141;-76
2022/03/31 04:59:14;;;;;;;3.88;2.65;;;7.30;48.80;;;;;;5029912;28;20051;-76
2022/03/31 05:01:40;;;;;;;5.13;2.80;;;7.30;48.80;;;;;;5011871;28;20048;-76
2022/03/31 05:04:06;;;;;;;3.17;2.88;;;7.20;48.60;;;;;;5025622;28;20053;-76
2022/03/31 05:06:32;;;;;;;4.38;3.13;;;7.20;48.60;;;;;;5027401;28;20029;-75
2022/03/31 05:08:58;;;;;;;5.32;2.70;;;7.20;48.60;;;;;;5017551;28;20579;-75
2022/03/31 05:11:24;;;;;;;3.28;2.95;;;7.20;48.50;;;;;;5027177;28;20100;-75
2022/03/31 05:13:49;;;;;;;3.28;2.88;;;7.20;48.60;;;;;;5007477;28;20038;-75
2022/03/31 05:16:16;;;;;;;4.35;2.70;;;7.20;48.60;;;;;;5018804;28;20778;-74
2022/03/31 05:18:43;;;;;;;3.78;2.85;;;7.10;48.40;;;;;;5021710;28;20168;-76
2022/03/31 05:21:09;;;;;;;4.30;2.55;;;7.10;48.40;;;;;;5024630;28;20031;-75
2022/03/31 05:23:35;;;;;;;4.30;2.78;;;7.10;48.40;;;;;;5019760;28;20046;-76
2022/03/31 05:26:00;;;;;;;4.78;3.10;;;7.10;48.40;;;;;;5012915;28;20033;-76
2022/03/31 05:28:27;;;;;;;4.28;2.90;;;7.10;48.50;;;;;;5022968;28;20290;-75
2022/03/31 05:30:52;;;;;;;4.90;3.00;;;7.10;48.50;;;;;;5023627;28;20030;-75
2022/03/31 05:33:19;;;;;;;2.95;2.70;;;7.10;48.50;;;;;;5022053;28;20049;-75
2022/03/31 05:35:45;;;;;;;4.05;2.88;;;7.00;48.30;;;;;;5023575;28;20064;-76
2022/03/31 05:38:11;;;;;;;4.90;3.10;;;7.00;48.30;;;;;;5020048;28;20076;-74
2022/03/31 05:40:37;;;;;;;5.20;3.10;;;7.00;48.30;;;;;;5017591;28;20530;-74
2022/03/31 05:43:03;;;;;;;4.43;3.13;;;7.00;48.30;;;;;;5022965;28;20104;-78
2022/03/31 05:45:29;;;;;;;4.03;3.35;;;7.00;48.30;;;;;;5030158;28;20499;-76
2022/03/31 05:47:55;;;;;;;3.80;2.78;;;7.00;48.30;;;;;;5021118;28;20073;-75
2022/03/31 05:50:21;;;;;;;3.17;2.45;;;7.00;48.30;;;;;;5020690;28;20324;-77
2022/03/31 05:52:47;;;;;;;3.38;2.63;;;6.90;48.00;;;;;;5024604;28;20041;-77
2022/03/31 05:55:15;;;;;;;4.40;3.38;;;6.90;48.00;;;;;;5015896;28;20083;-75
2022/03/31 05:57:42;;;;;;;4.18;2.88;;;6.90;47.90;;;;;;5012817;28;20108;-76
2022/03/31 06:00:11;;;;;;;4.45;2.50;;;6.90;47.90;;;;;;5014453;28;20040;-76
2022/03/31 06:02:40;;;;;;;3.83;2.45;;;6.90;47.90;;;;;;5020612;28;20326;-77
2022/03/31 06:05:07;;;;;;;3.22;2.92;;;6.90;47.80;;;;;;5021692;28;20051;-77
2022/03/31 06:07:33;;;;;;;2.88;2.45;;;6.90;47.90;;;;;;5020669;28;20372;-77
2022/03/31 06:09:59;;;;;;;3.88;2.42;;;6.90;47.80;;;;;;5017329;28;20639;-76
2022/03/31 06:12:25;;;;;;;3.70;2.40;;;6.90;47.80;;;;;;5015388;28;21479;-76
2022/03/31 06:14:51;;;;;;;3.38;2.70;;;6.80;47.50;;;;;;5004548;28;20065;-76
2022/03/31 06:17:17;;;;;;;4.18;2.67;;;6.90;47.70;;;;;;5017336;28;20116;-76
2022/03/31 06:19:43;;;;;;;4.63;2.40;;;6.90;47.70;;;;;;5002081;28;20025;-77
2022/03/31 06:22:09;;;;;;;5.13;2.42;;;6.90;47.60;;;;;;5021763;28;20029;-75
2022/03/31 06:24:35;;;;;;;4.97;2.50;;;6.90;47.40;;;;;;5004591;28;20049;-76
2022/03/31 06:27:02;;;;;;;3.88;2.67;;;6.90;47.40;;;;;;5016077;28;20416;-76
2022/03/31 06:29:30;;;;;;;2.97;2.47;;;7.00;47.50;;;;;;5018152;28;20064;-76
2022/03/31 06:31:56;;;;;;;2.85;2.20;;;7.00;47.30;;;;;;5013461;28;20038;-76
2022/03/31 06:34:22;;;;;;;4.13;2.70;;;7.10;48.00;;;;;;5023233;28;20198;-77
2022/03/31 06:36:49;;;;;;;7.72;2.65;;;7.20;47.40;;;;;;5014032;28;20036;-77
2022/03/31 06:39:15;;;;;;;3.05;2.50;;;7.40;47.50;;;;;;5019828;28;20068;-77
2022/03/31 06:41:42;;;;;;;3.42;2.03;;;7.60;47.60;;;;;;5003052;28;20471;-77
2022/03/31 06:44:08;;;;;;;2.92;2.47;;;7.80;47.50;;;;;;5007186;28;20040;-77
2022/03/31 06:46:35;;;;;;;3.33;2.20;;;8.00;47.30;;;;;;5019037;28;20029;-77
2022/03/31 06:49:01;;;;;;;4.25;2.42;;;8.20;47.10;;;;;;5019027;28;20079;-76
2022/03/31 06:51:28;;;;;;;3.05;2.42;;;8.40;47.00;;;;;;5013990;28;20063;-78
2022/03/31 06:53:57;;;;;;;4.68;2.20;;;8.40;46.80;;;;;;5036268;28;20060;-77
2022/03/31 06:56:27;;;;;;;2.88;2.25;;;8.50;46.80;;;;;;5022335;28;20363;-77
2022/03/31 06:58:57;;;;;;;3.85;2.10;;;8.70;46.90;;;;;;5002224;28;20041;-77
2022/03/31 07:01:24;;;;;;;2.22;2.03;;;8.80;46.80;;;;;;5006701;28;20113;-78
2022/03/31 07:03:51;;;;;;;4.78;2.60;;;8.80;46.60;;;;;;5022239;28;20036;-78
2022/03/31 07:06:18;;;;;;;3.17;2.25;;;8.80;46.40;;;;;;5021889;28;20304;-77
2022/03/31 07:08:44;;;;;;;5.30;2.08;;;8.80;46.40;;;;;;5022064;28;20062;-76
2022/03/31 07:11:11;;;;;;;2.63;2.10;;;8.80;46.50;;;;;;5012784;28;21175;-76
2022/03/31 07:13:37;;;;;;;2.15;1.95;;;8.80;46.40;;;;;;5011212;28;20029;-76
2022/03/31 07:16:04;;;;;;;4.90;2.20;;;8.80;46.40;;;;;;5020936;28;20058;-76
2022/03/31 07:18:30;;;;;;;2.67;1.80;;;8.80;46.20;;;;;;5016663;28;20117;-76
2022/03/31 07:20:59;;;;;;;6.43;1.63;;;8.90;46.40;;;;;;5037160;28;20556;-76
2022/03/31 07:23:26;;;;;;;2.85;1.63;;;8.90;46.20;;;;;;5032678;28;20037;-77
2022/03/31 07:25:53;;;;;;;5.90;2.30;;;9.00;46.30;;;;;;5002540;28;20472;-76
2022/03/31 07:28:20;;;;;;;2.90;2.10;;;9.00;46.10;;;;;;5016068;28;20123;-75
2022/03/31 07:30:47;;;;;;;3.88;1.75;;;9.20;46.30;;;;;;5010997;28;20435;-77
2022/03/31 07:33:13;;;;;;;4.18;1.80;;;9.20;46.60;;;;;;5005332;28;20096;-75
2022/03/31 07:35:41;;;;;;;5.50;1.67;;;9.20;45.60;;;;;;5015536;28;20029;-76
2022/03/31 07:38:08;;;;;;;4.32;1.77;;;9.20;45.40;;;;;;5007687;28;20049;-75
2022/03/31 07:40:37;;;;;;;2.47;1.75;;;9.20;45.20;;;;;;5022078;28;20038;-75
2022/03/31 07:43:04;;;;;;;3.15;1.58;;;9.20;45.20;;;;;;5023191;28;20585;-75
2022/03/31 07:45:34;;;;;;;2.78;1.60;;;9.10;44.90;;;;;;5026919;28;20026;-76
2022/03/31 07:48:01;;;;;;;4.90;1.80;;;9.20;45.00;;;;;;5026326;28;20087;-76
2022/03/31 07:50:27;;;;;;;3.67;1.83;;;9.10;44.70;;;;;;5026315;28;20123;-76
2022/03/31 07:52:53;;;;;;;2.92;1.42;;;9.20;44.90;;;;;;5024179;28;20078;-76
2022/03/31 07:55:19;;;;;;;2.15;1.42;;;9.20;45.30;;;;;;5024704;28;20108;-75
2022/03/31 07:57:46;;;;;;;1.83;1.48;;;9.20;44.60;;;;;;5014894;28;20040;-75
2022/03/31 08:00:14;;;;;;;2.15;1.35;;;9.30;44.70;;;;;;5035520;28;20078;-75
2022/03/31 08:02:41;;;;;;;2.83;1.35;;;9.30;44.60;;;;;;5026279;28;20419;-76
2022/03/31 08:05:09;;;;;;;2.28;1.40;;;9.40;44.60;;;;;;5036595;28;20028;-77
2022/03/31 08:07:36;;;;;;;2.08;1.33;;;9.50;44.50;;;;;;5000320;28;20038;-76
2022/03/31 08:10:03;;;;;;;1.67;1.27;;;9.70;44.60;;;;;;5025783;28;20029;-75
2022/03/31 08:12:29;;;;;;;2.92;1.40;;;9.80;44.50;;;;;;5015852;28;20513;-76
2022/03/31 08:14:55;;;;;;;1.67;1.27;;;9.80;44.30;;;;;;5005991;28;20022;-77
2022/03/31 08:17:21;;;;;;;4.63;2.25;;;9.90;44.40;;;;;;5006902;28;20144;-76
2022/03/31 08:19:47;;;;;;;1.92;1.33;;;9.90;44.20;;;;;;5030704;28;20062;-74
2022/03/31 08:22:13;;;;;;;2.00;1.45;;;10.00;44.30;;;;;;5039701;28;20029;-77
2022/03/31 08:24:39;;;;;;;3.30;1.45;;;10.10;44.30;;;;;;5024061;28;20029;-76
2022/03/31 08:27:05;;;;;;;2.70;1.60;;;10.20;44.20;;;;;;5027564;28;20052;-77
2022/03/31 08:29:31;;;;;;;2.50;1.60;;;10.20;44.00;;;;;;5003731;28;20067;-75
2022/03/31 08:31:57;;;;;;;2.58;1.83;;;10.30;44.10;;;;;;5005350;28;20289;-75
2022/03/31 08:34:23;;;;;;;2.88;1.88;;;10.30;44.10;;;;;;5007137;28;20136;-75
2022/03/31 08:36:49;;;;;;;4.45;1.50;;;10.40;44.30;;;;;;5025840;28;20114;-75
2022/03/31 08:39:16;;;;;;;1.67;1.30;;;10.40;44.30;;;;;;5022587;28;20076;-76
2022/03/31 08:41:44;;;;;;;2.30;1.60;;;10.50;44.40;;;;;;5022790;28;20112;-77
2022/03/31 08:44:19;;;;;;;3.97;1.50;;;10.50;44.40;;;;;;5022251;28;20029;-77
2022/03/31 08:46:46;;;;;;;3.88;1.88;;;10.50;44.40;;;;;;5000297;28;20694;-76
2022/03/31 08:49:12;;;;;;;2.92;1.27;;;10.50;44.30;;;;;;4992556;28;20034;-77
2022/03/31 08:51:42;;;;;;;2.75;1.55;;;10.50;44.40;;;;;;5011688;28;20045;-76
2022/03/31 08:54:08;;;;;;;3.00;1.30;;;10.50;44.30;;;;;;5028359;28;20036;-77
2022/03/31 08:56:35;;;;;;;2.65;1.40;;;10.60;44.30;;;;;;5016146;28;20303;-76
2022/03/31 08:59:01;;;;;;;2.50;1.50;;;10.60;44.20;;;;;;5027167;28;20116;-76
2022/03/31 09:01:28;;;;;;;1.70;1.20;;;10.60;44.00;;;;;;5019664;28;20039;-76
2022/03/31 09:03:53;;;;;;;2.28;1.20;;;10.60;44.00;;;;;;5017346;28;20029;-76
2022/03/31 09:06:24;;;;;;;2.05;1.10;;;10.60;43.90;;;;;;5038672;28;20123;-76
2022/03/31 09:08:58;;;;;;;2.28;1.20;;;10.60;44.00;;;;;;5032060;28;20080;-76
2022/03/31 09:11:35;;;;;;;1.42;1.10;;;10.70;44.10;;;;;;5003223;28;20113;-77
2022/03/31 09:14:03;;;;;;;4.82;1.42;;;10.90;44.20;;;;;;5027204;28;20306;-76
2022/03/31 09:16:37;;;;;;;2.55;1.00;;;11.00;44.10;;;;;;5041520;28;20131;-77
2022/03/31 09:19:14;;;;;;;3.97;1.10;;;11.20;44.00;;;;;;5016214;28;20102;-76
2022/03/31 09:21:54;;;;;;;2.60;1.30;;;11.30;44.00;;;;;;5028087;28;20057;-77
2022/03/31 09:24:21;;;;;;;1.83;1.23;;;11.30;43.70;;;;;;5021059;28;20065;-77
2022/03/31 09:26:49;;;;;;;1.70;1.23;;;11.40;43.80;;;;;;5025010;28;20044;-76
2022/03/31 09:29:17;;;;;;;2.55;1.33;;;11.50;43.80;;;;;;4995995;28;20182;-76
2022/03/31 09:31:44;;;;;;;1.33;1.23;;;11.50;43.60;;;;;;5009955;28;20041;-77
2022/03/31 09:34:09;;;;;;;1.85;1.20;;;11.50;43.50;;;;;;5015912;28;20369;-78
2022/03/31 09:36:39;;;;;;;4.18;1.50;;;11.60;43.60;;;;;;5023345;28;20048;-76
2022/03/31 09:39:13;;;;;;;2.92;1.35;;;11.60;43.50;;;;;;5012155;28;20164;-76
2022/03/31 09:41:43;;;;;;;1.90;1.33;;;11.60;43.30;;;;;;5027038;28;20366;-76
2022/03/31 09:44:23;;;;;;;2.25;1.38;;;11.70;43.40;;;;;;5016498;28;20108;-76
2022/03/31 09:46:50;;;;;;;1.65;1.10;;;11.80;43.30;;;;;;4987283;28;20069;-76
2022/03/31 09:49:20;;;;;;;1.20;1.10;;;11.90;43.30;;;;;;5020132;28;20033;-76
2022/03/31 09:51:49;;;;;;;3.90;1.45;;;12.00;43.20;;;;;;5018734;28;20091;-76
2022/03/31 09:54:16;;;;;;;5.65;2.00;;;12.10;43.30;;;;;;5031376;28;20029;-76
2022/03/31 09:56:42;;;;;;;3.22;2.15;;;12.10;43.10;;;;;;5012003;28;20040;-75
2022/03/31 09:59:11;;;;;;;4.95;3.00;;;12.10;42.90;;;;;;5025599;28;20131;-75
2022/03/31 10:01:38;;;;;;;4.07;3.78;;;12.20;43.10;;;;;;5034568;28;20566;-75
2022/03/31 10:04:06;;;;;;;5.07;3.45;;;12.20;43.00;;;;;;5031078;28;20037;-76
2022/03/31 10:06:37;;;;;;;4.50;3.75;;;12.40;43.00;;;;;;5015788;28;20286;-77
2022/03/31 10:09:05;;;;;;;5.47;3.97;;;12.50;43.40;;;;;;5026588;28;20033;-76
2022/03/31 10:11:34;;;;;;;4.50;3.63;;;12.50;42.70;;;;;;5004829;28;20539;-75
2022/03/31 10:14:37;;;;;;;3.85;3.08;;;12.50;42.70;;;;;;5022769;28;20029;-76
2022/03/31 10:17:10;;;;;;;8.55;4.30;;;12.50;43.60;;;;;;5006093;28;20045;-76
2022/03/31 10:19:39;;;;;;;5.47;3.78;;;12.60;43.80;;;;;;5021148;28;20132;-76
2022/03/31 10:22:08;;;;;;;4.05;3.40;;;12.60;43.80;;;;;;5022718;28;20057;-76
2022/03/31 10:24:45;;;;;;;6.55;3.80;;;12.60;43.70;;;;;;5005419;28;20067;-76
2022/03/31 10:27:32;;;;;;;4.35;3.20;;;12.60;43.70;;;;;;5019552;28;20030;-77
2022/03/31 10:30:12;;;;;;;5.20;3.03;;;12.70;43.80;;;;;;4998484;28;20148;-76
2022/03/31 10:32:53;;;;;;;6.85;3.42;;;12.60;43.40;;;;;;5012580;28;20523;-77
2022/03/31 10:35:24;;;;;;;5.43;3.08;;;12.80;43.60;;;;;;5020947;28;20421;-77
2022/03/31 10:37:51;;;;;;;7.13;2.83;;;12.80;43.50;;;;;;5025261;28;20133;-77
2022/03/31 10:40:32;;;;;;;2.60;2.38;;;12.80;43.20;;;;;;5021615;28;20069;-77
2022/03/31 10:42:57;;;;;;;4.93;2.00;;;12.90;43.10;;;;;;5035878;28;20036;-77
2022/03/31 10:45:37;;;;;;;3.28;2.10;;;12.90;43.00;;;;;;5022154;28;20044;-77
2022/03/31 10:48:17;;;;;;;4.35;2.90;;;12.90;42.80;;;;;;5017214;28;20057;-77
2022/03/31 10:50:43;;;;;;;2.10;1.90;;;13.00;42.80;;;;;;5027797;28;20036;-77
2022/03/31 10:53:09;;;;;;;2.28;1.95;;;13.00;42.90;;;;;;5023947;28;20136;-77
2022/03/31 10:55:37;;;;;;;3.28;2.35;;;13.10;43.30;;;;;;5023701;28;20411;-76
2022/03/31 10:58:04;;;;;;;4.95;1.80;;;13.30;43.60;;;;;;5021197;28;20040;-75
2022/03/31 11:00:30;;;;;;;2.65;1.85;;;13.30;43.30;;;;;;5022746;28;20029;-78
2022/03/31 11:02:56;;;;;;;2.05;1.60;;;13.40;43.30;;;;;;5025957;28;20485;-75
2022/03/31 11:05:22;;;;;;;1.58;1.23;;;13.40;43.10;;;;;;5018320;28;20032;-76
2022/03/31 11:07:48;;;;;;;2.95;1.60;;;13.50;43.20;;;;;;5024847;28;20037;-76
2022/03/31 11:10:17;;;;;;;2.53;1.60;;;13.50;43.10;;;;;;5023106;28;20103;-76
2022/03/31 11:12:43;;;;;;;2.13;1.90;;;13.50;42.90;;;;;;5026482;28;20050;-76
2022/03/31 11:15:17;;;;;;;4.63;1.90;;;13.60;43.00;;;;;;5010866;28;20087;-75
2022/03/31 11:17:43;;;;;;;3.58;1.63;;;13.70;42.90;;;;;;5024247;28;20025;-76
2022/03/31 11:20:21;;;;;;;3.25;2.28;;;13.90;42.90;;;;;;5034634;28;20021;-76
2022/03/31 11:22:50;;;;;;;3.47;1.75;;;14.00;42.50;;;;;;5028265;28;20029;-75
2022/03/31 11:25:16;;;;;;;2.88;2.15;;;14.10;42.40;;;;;;4994524;28;20500;-76
2022/03/31 11:27:43;;;;;;;3.03;2.00;;;14.10;42.80;;;;;;5035461;28;20044;-76
2022/03/31 11:30:22;;;;;;;5.43;2.72;;;14.20;42.20;;;;;;5026115;28;20026;-76
2022/03/31 11:32:52;;;;;;;4.45;2.55;;;14.20;41.80;;;;;;5021922;28;20045;-75
2022/03/31 11:35:20;;;;;;;3.92;2.40;;;14.30;41.80;;;;;;5010217;28;20531;-75
2022/03/31 11:37:54;;;;;;;3.53;2.25;;;14.40;41.70;;;;;;4998043;28;20030;-76
2022/03/31 11:40:25;;;;;;;3.20;2.05;;;14.50;41.60;;;;;;5030318;28;20072;-76
2022/03/31 11:42:52;;;;;;;4.80;2.40;;;14.60;41.50;;;;;;5047980;28;20029;-76
2022/03/31 11:45:47;;;;;;;3.67;2.08;;;14.70;41.30;;;;;;5021816;28;20037;-77
2022/03/31 11:48:16;;;;;;;3.63;2.00;;;14.70;40.80;;;;;;5026296;28;20061;-76
2022/03/31 11:50:53;;;;;;;6.60;2.30;;;14.60;40.90;;;;;;5031464;28;20037;-76
2022/03/31 11:53:20;;;;;;;3.42;2.38;;;14.50;40.70;;;;;;5013668;28;20124;-75
2022/03/31 11:56:16;;;;;;;3.58;2.28;;;14.40;40.80;;;;;;5018309;28;20053;-75
2022/03/31 11:58:48;;;;;;;4.95;2.30;;;14.30;40.60;;;;;;5026405;28;20152;-76
2022/03/31 12:01:22;;;;;;;3.72;1.83;;;14.20;40.60;;;;;;5024513;28;20094;-76
2022/03/31 12:03:48;;;;;;;4.22;1.80;;;14.20;40.80;;;;;;5021528;28;20029;-76
2022/03/31 12:06:16;;;;;;;4.68;1.65;;;14.10;40.80;;;;;;5017074;28;20480;-77
2022/03/31 12:08:43;;;;;;;3.00;1.80;;;14.10;40.70;;;;;;5018425;28;20068;-77
2022/03/31 12:11:09;;;;;;;3.10;2.08;;;14.20;40.70;;;;;;5025852;28;20144;-77
2022/03/31 12:14:01;;;;;;;6.13;1.90;;;14.40;40.80;;;;;;5040475;28;20026;-76
2022/03/31 12:16:26;;;;;;;3.53;1.65;;;14.50;40.40;;;;;;5009016;28;20511;-76
2022/03/31 12:18:54;;;;;;;3.55;1.90;;;14.50;40.40;;;;;;5019402;28;20116;-76
2022/03/31 12:21:21;;;;;;;5.45;2.38;;;14.50;40.30;;;;;;5032820;28;20354;-76
2022/03/31 12:23:48;;;;;;;1.92;1.02;;;14.50;40.40;;;;;;5022314;28;20522;-76
2022/03/31 12:26:20;;;;;;;2.88;1.10;;;14.40;40.30;;;;;;5024666;28;20037;-76
2022/03/31 12:28:48;;;;;;;1.80;1.17;;;14.30;40.30;;;;;;5022676;28;20026;-77
2022/03/31 12:31:29;;;;;;;2.10;1.10;;;14.30;40.50;;;;;;4999186;28;20041;-76
2022/03/31 12:33:56;;;;;;;4.68;1.48;;;14.20;40.40;;;;;;5021020;28;20069;-76
2022/03/31 12:36:33;;;;;;;1.77;1.20;;;14.10;40.50;;;;;;5028789;28;20106;-76
2022/03/31 12:39:05;;;;;;;3.30;1.40;;;14.00;40.40;;;;;;5022913;28;20066;-76
2022/03/31 12:41:38;;;;;;;3.40;1.40;;;14.00;40.60;;;;;;5020831;28;20071;-75
2022/03/31 12:44:07;;;;;;;1.80;1.55;;;14.00;40.70;;;;;;5028603;28;20617;-76
2022/03/31 12:47:00;;;;;;;1.30;0.90;;;14.10;40.90;;;;;;5011471;28;20030;-76
2022/03/31 12:49:32;;;;;;;2.10;1.00;;;14.40;41.00;;;;;;5002417;28;20069;-76
2022/03/31 12:52:01;;;;;;;2.25;1.08;;;14.60;41.00;;;;;;5025094;28;20038;-76
2022/03/31 12:54:39;;;;;;;2.70;1.30;;;14.70;40.70;;;;;;5019507;28;20069;-76
2022/03/31 12:57:12;;;;;;;2.15;1.17;;;14.70;40.30;;;;;;5028327;28;20033;-76
2022/03/31 12:59:38;;;;;;;3.38;1.20;;;14.80;40.60;;;;;;5022731;28;20502;-78
2022/03/31 13:02:12;;;;;;;1.48;1.10;;;14.80;40.60;;;;;;5037789;28;20095;-76